Aviation Digital Data Service (ADDS)

Output produced by METARs form (1632 UTC 20 August 2014)
found at http://aviationweather.gov/adds/metars/
 
KCAR 201120Z 2012/2112 VRB03KT P6SM FEW250 
     FM201500 33004KT P6SM SCT040